Loganville, Wisconsin
Current Conditions -  °F | °C
As of 5:15 AM on Saturday 25 Oct 2014 (Local Time) from KC35 Reporting Station
Clear Clear  
Wind Chill: 54°   Ceiling: Unl
Heat Index: 54°   Visibility: 10mi
Dew Point: 51°   Wind: 3mph
Humidity: 91%   Direction: 290°WNW
Pressure: 29.9"   Gusts: NA
Location:  43.44°N, 90.04°W
Report Text: KC35 251015Z AUTO 29003KT 10SM CLR 12/11 A2990 RMK AO2 T01220108
Loading
Personal Weather Stations






























Interactive Weather Map
Tropical Storm Tracking
New forecast layout! Learn more

10-Day Weather Forecast

Advertisements
Track Severe Weather on mobile